Time;durP1;ratioP1;P1;durP2;ratioP2;P2;SDS_P1;SDS_P2;PMS_P1;PMS_P2;Temp;Humidity;BMP_temperature;BMP_pressure;BME280_temperature;BME280_humidity;BME280_pressure;Samples;Min_cycle;Max_cycle;Signal;HPM_P1;HPM_P2
2021/09/20 00:00:38;;;;;;;7.78;4.78;;;13.50;79.40;;;;;;5033572;28;20076;-84
2021/09/20 00:03:03;;;;;;;9.40;5.15;;;13.50;79.30;;;;;;5037422;28;20079;-82
2021/09/20 00:05:29;;;;;;;9.30;4.80;;;13.50;79.10;;;;;;5053530;28;20077;-82
2021/09/20 00:07:55;;;;;;;8.50;5.13;;;13.50;79.00;;;;;;5055309;28;20021;-82
2021/09/20 00:10:21;;;;;;;9.82;6.75;;;13.40;78.70;;;;;;5056382;28;20045;-83
2021/09/20 00:12:46;;;;;;;9.15;5.13;;;13.40;78.80;;;;;;5051314;28;20509;-82
2021/09/20 00:15:13;;;;;;;8.40;5.75;;;13.30;78.80;;;;;;5032946;28;20030;-83
2021/09/20 00:17:38;;;;;;;8.52;4.70;;;13.30;78.80;;;;;;5037511;28;20027;-83
2021/09/20 00:20:07;;;;;;;8.77;4.50;;;13.20;79.10;;;;;;5040567;28;20109;-83
2021/09/20 00:22:32;;;;;;;9.98;6.18;;;13.20;79.50;;;;;;5037424;28;20021;-83
2021/09/20 00:24:58;;;;;;;8.07;5.18;;;13.20;79.90;;;;;;5037771;28;20032;-83
2021/09/20 00:27:24;;;;;;;10.95;6.07;;;13.10;79.70;;;;;;5043462;28;20033;-85
2021/09/20 00:29:49;;;;;;;10.70;5.05;;;13.10;80.00;;;;;;5043416;28;20046;-83
2021/09/20 00:32:15;;;;;;;10.00;6.32;;;13.10;80.50;;;;;;5054138;28;20078;-82
2021/09/20 00:34:42;;;;;;;9.93;6.72;;;13.10;80.50;;;;;;5036353;28;20048;-82
2021/09/20 00:37:08;;;;;;;9.50;5.95;;;13.00;80.40;;;;;;5038853;28;20524;-82
2021/09/20 00:39:34;;;;;;;10.70;6.10;;;13.00;80.50;;;;;;5038264;28;20022;-83
2021/09/20 00:42:00;;;;;;;9.52;6.07;;;13.00;81.00;;;;;;5035650;28;20488;-81
2021/09/20 00:44:26;;;;;;;9.43;6.22;;;12.90;80.90;;;;;;5036900;28;20026;-82
2021/09/20 00:46:52;;;;;;;10.02;6.70;;;13.00;80.90;;;;;;5038625;28;20026;-81
2021/09/20 00:49:17;;;;;;;10.63;6.35;;;12.90;80.90;;;;;;5036645;28;20100;-82
2021/09/20 00:51:43;;;;;;;10.98;6.38;;;12.80;80.90;;;;;;5036930;28;20067;-82
2021/09/20 00:54:09;;;;;;;9.60;5.95;;;12.90;81.00;;;;;;5036689;28;20049;-80
2021/09/20 00:56:34;;;;;;;9.40;6.30;;;12.80;81.10;;;;;;5038586;28;20117;-83
2021/09/20 00:59:00;;;;;;;8.60;5.75;;;12.80;81.30;;;;;;5038158;28;20124;-82
2021/09/20 01:01:27;;;;;;;8.48;5.63;;;12.80;81.50;;;;;;5037121;28;20112;-81
2021/09/20 01:03:52;;;;;;;11.50;6.15;;;12.80;81.70;;;;;;5038279;28;20022;-83
2021/09/20 01:06:18;;;;;;;8.43;6.20;;;12.70;82.20;;;;;;5049347;28;20025;-82
2021/09/20 01:08:44;;;;;;;9.73;6.25;;;12.70;82.50;;;;;;5051347;28;20548;-82
2021/09/20 01:11:10;;;;;;;10.82;6.63;;;12.60;82.60;;;;;;5036632;28;20509;-81
2021/09/20 01:13:36;;;;;;;12.00;7.25;;;12.60;82.60;;;;;;5036211;28;20033;-82
2021/09/20 01:16:01;;;;;;;10.10;6.22;;;12.60;82.60;;;;;;5036424;28;20108;-84
2021/09/20 01:18:27;;;;;;;10.13;6.70;;;12.50;82.80;;;;;;5036138;28;20045;-82
2021/09/20 01:20:53;;;;;;;10.05;6.68;;;12.50;82.70;;;;;;5035278;28;20021;-83
2021/09/20 01:23:19;;;;;;;10.90;6.85;;;12.40;82.70;;;;;;5036116;28;20022;-83
2021/09/20 01:25:45;;;;;;;9.82;6.72;;;12.40;82.50;;;;;;5036300;28;20433;-82
2021/09/20 01:28:10;;;;;;;11.15;7.00;;;12.50;82.40;;;;;;5035368;28;20052;-82
2021/09/20 01:30:36;;;;;;;10.00;6.55;;;12.50;82.50;;;;;;5036612;28;20493;-82
2021/09/20 01:33:02;;;;;;;13.18;7.32;;;12.50;82.40;;;;;;5035728;28;20026;-82
2021/09/20 01:35:28;;;;;;;11.68;6.55;;;12.40;82.20;;;;;;5036966;28;20108;-83
2021/09/20 01:37:54;;;;;;;13.40;7.53;;;12.40;82.30;;;;;;5037184;28;20034;-82
2021/09/20 01:40:20;;;;;;;7.40;5.13;;;12.40;82.30;;;;;;5040120;28;20049;-81
2021/09/20 01:42:46;;;;;;;7.97;5.63;;;12.40;82.50;;;;;;5047442;28;20053;-82
2021/09/20 01:45:14;;;;;;;9.68;6.47;;;12.40;82.40;;;;;;5036992;28;20462;-82
2021/09/20 01:47:41;;;;;;;9.93;7.00;;;12.30;82.00;;;;;;5036473;28;20036;-83
2021/09/20 01:50:08;;;;;;;8.57;5.32;;;12.40;81.90;;;;;;5038764;28;20390;-83
2021/09/20 01:52:34;;;;;;;10.18;5.68;;;12.30;82.10;;;;;;5055669;28;20506;-82
2021/09/20 01:55:00;;;;;;;11.32;6.90;;;12.30;81.90;;;;;;5043701;28;20045;-82
2021/09/20 01:57:26;;;;;;;11.60;6.88;;;12.30;81.50;;;;;;5049111;28;20104;-82
2021/09/20 01:59:52;;;;;;;10.35;6.55;;;12.30;81.70;;;;;;5055413;28;20083;-82
2021/09/20 02:02:19;;;;;;;10.70;6.28;;;12.30;81.30;;;;;;5051535;28;20413;-82
2021/09/20 02:04:44;;;;;;;10.38;6.45;;;12.30;81.10;;;;;;5036038;28;20476;-82
2021/09/20 02:07:10;;;;;;;11.13;5.60;;;12.30;80.90;;;;;;5034408;28;20060;-83
2021/09/20 02:09:36;;;;;;;10.32;5.60;;;12.30;80.70;;;;;;5036612;28;20030;-83
2021/09/20 02:12:02;;;;;;;10.05;6.45;;;12.30;80.70;;;;;;5051453;28;20021;-83
2021/09/20 02:14:28;;;;;;;9.65;6.43;;;12.30;80.70;;;;;;5035274;28;20025;-82
2021/09/20 02:16:54;;;;;;;9.73;6.65;;;12.30;80.40;;;;;;5035060;28;20052;-82
2021/09/20 02:19:19;;;;;;;9.18;5.90;;;12.30;80.50;;;;;;5045562;28;20022;-82
2021/09/20 02:21:45;;;;;;;8.80;5.95;;;12.20;80.80;;;;;;5035173;28;20131;-82
2021/09/20 02:24:11;;;;;;;9.13;5.72;;;12.30;80.80;;;;;;5035308;28;20526;-82
2021/09/20 02:26:37;;;;;;;7.93;5.28;;;12.30;81.00;;;;;;5035702;28;20025;-82
2021/09/20 02:29:04;;;;;;;10.77;6.50;;;12.20;81.10;;;;;;5034997;28;20060;-81
2021/09/20 02:31:30;;;;;;;9.13;6.13;;;12.20;80.50;;;;;;5034941;28;20084;-82
2021/09/20 02:33:57;;;;;;;9.18;5.97;;;12.20;80.40;;;;;;5035957;28;20045;-82
2021/09/20 02:36:23;;;;;;;9.93;6.05;;;12.20;80.60;;;;;;5034993;28;20489;-82
2021/09/20 02:38:49;;;;;;;8.40;4.95;;;12.20;80.40;;;;;;5034857;28;20116;-82
2021/09/20 02:41:15;;;;;;;10.05;6.30;;;12.20;80.80;;;;;;5034003;28;20028;-81
2021/09/20 02:43:41;;;;;;;8.57;5.85;;;12.20;80.10;;;;;;5051874;28;20052;-82
2021/09/20 02:46:07;;;;;;;8.93;4.93;;;12.20;80.10;;;;;;5034936;28;20472;-81
2021/09/20 02:48:33;;;;;;;10.13;6.03;;;12.10;80.00;;;;;;5034433;28;20029;-83
2021/09/20 02:50:59;;;;;;;10.50;6.15;;;12.10;80.00;;;;;;5051180;28;20078;-82
2021/09/20 02:53:25;;;;;;;8.90;6.07;;;12.10;79.70;;;;;;5034164;28;20373;-81
2021/09/20 02:55:51;;;;;;;8.75;5.28;;;12.10;79.60;;;;;;5046589;28;20017;-82
2021/09/20 02:58:16;;;;;;;12.38;6.38;;;12.10;79.70;;;;;;5034077;28;20064;-81
2021/09/20 03:00:42;;;;;;;8.30;5.07;;;12.10;79.90;;;;;;5034408;28;20044;-83
2021/09/20 03:03:08;;;;;;;11.90;6.55;;;12.10;79.80;;;;;;5034341;28;20032;-82
2021/09/20 03:05:37;;;;;;;8.75;5.97;;;12.10;79.80;;;;;;5034780;28;20105;-82
2021/09/20 03:08:04;;;;;;;9.95;6.10;;;12.00;79.60;;;;;;5051032;28;20156;-82
2021/09/20 03:10:31;;;;;;;8.85;5.70;;;12.00;79.70;;;;;;5042635;28;20101;-80
2021/09/20 03:12:56;;;;;;;10.07;5.88;;;12.00;79.60;;;;;;5048651;28;20025;-82
2021/09/20 03:15:22;;;;;;;9.07;5.65;;;11.90;79.60;;;;;;5033558;28;20398;-82
2021/09/20 03:17:48;;;;;;;10.95;6.00;;;12.00;79.80;;;;;;5051156;28;20027;-81
2021/09/20 03:20:14;;;;;;;8.80;5.68;;;12.00;79.80;;;;;;5034280;28;20022;-82
2021/09/20 03:22:40;;;;;;;9.73;5.70;;;11.90;79.80;;;;;;5032722;28;20524;-82
2021/09/20 03:25:07;;;;;;;9.68;5.53;;;12.00;80.00;;;;;;5049141;28;20030;-82
2021/09/20 03:27:33;;;;;;;8.70;5.25;;;11.90;80.00;;;;;;5032891;28;20068;-82
2021/09/20 03:29:58;;;;;;;10.27;6.10;;;11.90;80.10;;;;;;5033230;28;20525;-83
2021/09/20 03:32:24;;;;;;;9.52;5.47;;;11.90;80.10;;;;;;5043855;28;20059;-81
2021/09/20 03:34:50;;;;;;;10.45;5.60;;;11.90;80.40;;;;;;5034543;28;20041;-82
2021/09/20 03:37:15;;;;;;;8.00;5.40;;;11.80;80.50;;;;;;5038672;28;20029;-81
2021/09/20 03:39:41;;;;;;;10.20;5.07;;;11.80;80.70;;;;;;5035055;28;20029;-82
2021/09/20 03:42:07;;;;;;;8.80;5.70;;;11.80;80.80;;;;;;5035689;28;20036;-81
2021/09/20 03:44:32;;;;;;;10.23;6.40;;;11.80;81.70;;;;;;5037548;28;20051;-82
2021/09/20 03:46:58;;;;;;;10.13;5.18;;;11.80;81.30;;;;;;5042819;28;20024;-82
2021/09/20 03:49:23;;;;;;;11.13;6.32;;;11.80;83.60;;;;;;5055524;28;20093;-82
2021/09/20 03:51:49;;;;;;;8.77;6.50;;;11.80;82.90;;;;;;5053821;28;20025;-83
2021/09/20 03:54:15;;;;;;;8.57;5.13;;;11.80;82.20;;;;;;5051476;28;20061;-81
2021/09/20 03:56:40;;;;;;;9.52;5.45;;;11.80;83.60;;;;;;5033532;28;20159;-82
2021/09/20 03:59:06;;;;;;;9.95;5.10;;;11.80;83.90;;;;;;5032873;28;20030;-82
2021/09/20 04:01:32;;;;;;;9.10;5.47;;;11.80;83.60;;;;;;5032347;28;20032;-83
2021/09/20 04:03:58;;;;;;;10.45;6.03;;;11.80;83.30;;;;;;5033674;28;20021;-82
2021/09/20 04:06:24;;;;;;;7.10;4.60;;;11.80;83.10;;;;;;5033452;28;20035;-82
2021/09/20 04:08:49;;;;;;;8.45;5.50;;;11.70;84.10;;;;;;5045059;28;20034;-81
2021/09/20 04:11:15;;;;;;;9.48;5.80;;;11.70;83.40;;;;;;5033682;28;20355;-82
2021/09/20 04:13:41;;;;;;;11.27;6.47;;;11.70;83.60;;;;;;5033391;28;20026;-81
2021/09/20 04:16:06;;;;;;;8.63;5.90;;;11.70;83.10;;;;;;5032049;28;20140;-83
2021/09/20 04:18:32;;;;;;;7.75;5.28;;;11.70;83.20;;;;;;5032191;28;20032;-82
2021/09/20 04:20:58;;;;;;;9.65;5.82;;;11.70;83.40;;;;;;5049195;28;20411;-82
2021/09/20 04:23:25;;;;;;;6.03;4.10;;;11.70;84.00;;;;;;5032708;28;20025;-82
2021/09/20 04:25:51;;;;;;;10.15;6.70;;;11.70;85.00;;;;;;5032689;28;20025;-82
2021/09/20 04:28:18;;;;;;;9.10;6.63;;;11.70;85.10;;;;;;5031962;28;20075;-80
2021/09/20 04:30:44;;;;;;;7.20;4.80;;;11.60;84.50;;;;;;5031694;28;20100;-82
2021/09/20 04:33:18;;;;;;;8.10;5.10;;;11.60;84.80;;;;;;5032376;28;20057;-83
2021/09/20 04:35:43;;;;;;;8.85;5.95;;;11.70;85.00;;;;;;5032999;28;20640;-82
2021/09/20 04:38:09;;;;;;;9.65;5.05;;;11.60;84.40;;;;;;5032767;28;20033;-82
2021/09/20 04:40:37;;;;;;;7.57;4.57;;;11.60;84.40;;;;;;5033032;28;20025;-82
2021/09/20 04:43:05;;;;;;;8.63;5.82;;;11.60;86.50;;;;;;5032327;28;20021;-82
2021/09/20 04:45:30;;;;;;;9.27;5.53;;;11.60;85.50;;;;;;5041765;28;20486;-82
2021/09/20 04:47:56;;;;;;;8.38;4.13;;;11.60;85.60;;;;;;5037548;28;20036;-81
2021/09/20 04:50:22;;;;;;;9.38;6.05;;;11.60;87.70;;;;;;5033097;28;20072;-82
2021/09/20 04:52:48;;;;;;;9.15;6.53;;;11.60;87.60;;;;;;5033339;28;20041;-82
2021/09/20 04:55:14;;;;;;;13.10;6.38;;;11.60;86.90;;;;;;5032998;28;20616;-82
2021/09/20 04:57:40;;;;;;;10.00;5.90;;;11.60;85.00;;;;;;5033584;28;20439;-83
2021/09/20 05:00:07;;;;;;;10.13;6.50;;;11.50;85.10;;;;;;5032703;28;20088;-83
2021/09/20 05:02:33;;;;;;;10.73;7.03;;;11.60;85.40;;;;;;5032519;28;20486;-82
2021/09/20 05:04:59;;;;;;;13.35;8.10;;;11.60;85.20;;;;;;5035993;28;20040;-83
2021/09/20 05:07:25;;;;;;;11.60;5.82;;;11.50;84.70;;;;;;5036801;28;20061;-83
2021/09/20 05:09:51;;;;;;;10.13;6.88;;;11.50;84.90;;;;;;5036068;28;20116;-84
2021/09/20 05:12:17;;;;;;;14.07;7.80;;;11.50;85.80;;;;;;5039210;28;20044;-82
2021/09/20 05:14:43;;;;;;;11.25;7.38;;;11.50;85.00;;;;;;5046767;28;20021;-80
2021/09/20 05:17:08;;;;;;;12.52;7.15;;;11.50;85.00;;;;;;5042136;28;20071;-81
2021/09/20 05:19:34;;;;;;;10.20;5.70;;;11.50;85.50;;;;;;5036888;28;20528;-82
2021/09/20 05:22:00;;;;;;;10.82;6.07;;;11.50;87.30;;;;;;5043467;28;20017;-83
2021/09/20 05:24:26;;;;;;;10.73;6.40;;;11.50;86.90;;;;;;5041498;28;20045;-82
2021/09/20 05:26:52;;;;;;;10.95;6.63;;;11.40;86.70;;;;;;5037205;28;20036;-81
2021/09/20 05:29:17;;;;;;;8.73;5.88;;;11.50;88.50;;;;;;5036317;28;20443;-83
2021/09/20 05:31:43;;;;;;;11.05;5.88;;;11.50;88.00;;;;;;5037693;28;20032;-82
2021/09/20 05:34:09;;;;;;;9.55;6.20;;;11.50;87.50;;;;;;5038758;28;20037;-81
2021/09/20 05:36:34;;;;;;;11.70;7.78;;;11.60;88.10;;;;;;5051924;28;20021;-82
2021/09/20 05:39:00;;;;;;;12.15;8.43;;;11.50;88.60;;;;;;5064871;28;20018;-81
2021/09/20 05:41:25;;;;;;;9.43;5.18;;;11.50;87.60;;;;;;5069167;28;20128;-82
2021/09/20 05:43:51;;;;;;;10.63;6.28;;;11.50;89.10;;;;;;5048323;28;20474;-82
2021/09/20 05:46:17;;;;;;;10.02;6.55;;;11.50;88.50;;;;;;5042367;28;20501;-82
2021/09/20 05:48:43;;;;;;;10.77;7.03;;;11.60;89.40;;;;;;5043003;28;20060;-82
2021/09/20 05:51:10;;;;;;;8.25;4.72;;;11.60;88.60;;;;;;5045003;28;20108;-83
2021/09/20 05:53:36;;;;;;;15.48;9.73;;;11.60;89.60;;;;;;5044553;28;20017;-82
2021/09/20 05:56:02;;;;;;;13.23;7.97;;;11.70;87.30;;;;;;5044458;28;20044;-81
2021/09/20 05:58:27;;;;;;;10.25;6.70;;;11.70;86.80;;;;;;5048486;28;20025;-81
2021/09/20 06:00:53;;;;;;;12.43;7.97;;;11.80;86.20;;;;;;5051968;28;20017;-81
2021/09/20 06:03:18;;;;;;;15.32;9.07;;;11.80;87.00;;;;;;5037152;28;20430;-81
2021/09/20 06:05:44;;;;;;;18.65;9.90;;;11.90;86.00;;;;;;5035437;28;20033;-81
2021/09/20 06:08:10;;;;;;;13.07;7.60;;;12.00;85.50;;;;;;5040384;28;20378;-82
2021/09/20 06:10:37;;;;;;;7.78;5.40;;;12.10;84.70;;;;;;5046705;28;20021;-82
2021/09/20 06:13:06;;;;;;;10.63;6.95;;;12.20;85.90;;;;;;5042889;28;20492;-83
2021/09/20 06:15:32;;;;;;;9.38;6.55;;;12.30;85.70;;;;;;5045820;28;20025;-83
2021/09/20 06:17:58;;;;;;;10.63;7.15;;;12.30;85.00;;;;;;5041516;28;20074;-83
2021/09/20 06:20:24;;;;;;;12.05;7.50;;;12.40;83.90;;;;;;5043235;28;20037;-82
2021/09/20 06:22:50;;;;;;;11.60;6.78;;;12.50;83.70;;;;;;5042380;28;20032;-81
2021/09/20 06:25:15;;;;;;;9.45;6.13;;;12.60;83.30;;;;;;5044148;28;20029;-83
2021/09/20 06:27:44;;;;;;;11.10;7.32;;;12.70;82.30;;;;;;5044015;28;20357;-83
2021/09/20 06:30:11;;;;;;;11.57;7.45;;;12.80;81.20;;;;;;5040952;28;20029;-83
2021/09/20 06:32:37;;;;;;;9.52;5.57;;;12.90;81.50;;;;;;5042676;28;20017;-82
2021/09/20 06:35:04;;;;;;;11.32;7.95;;;12.90;80.90;;;;;;5047829;28;20493;-82
2021/09/20 06:37:29;;;;;;;13.40;8.48;;;13.00;79.80;;;;;;5045027;28;20032;-82
2021/09/20 06:39:55;;;;;;;12.05;7.93;;;13.10;80.50;;;;;;5053298;28;20465;-83
2021/09/20 06:42:21;;;;;;;9.55;6.70;;;13.20;78.70;;;;;;5050413;28;20140;-82
2021/09/20 06:44:50;;;;;;;9.95;6.38;;;13.30;80.20;;;;;;5043131;28;20488;-81
2021/09/20 06:47:20;;;;;;;10.90;7.28;;;13.30;79.60;;;;;;5042740;28;20025;-84
2021/09/20 06:49:46;;;;;;;13.98;7.65;;;13.50;78.70;;;;;;5045258;28;20223;-81
2021/09/20 06:52:12;;;;;;;6.70;3.55;;;13.60;79.30;;;;;;5040827;28;20030;-82
2021/09/20 06:54:37;;;;;;;9.57;6.35;;;13.80;82.60;;;;;;5034252;28;20021;-81
2021/09/20 06:57:03;;;;;;;12.00;7.63;;;13.80;77.80;;;;;;5046287;28;20018;-82
2021/09/20 06:59:29;;;;;;;7.70;4.97;;;13.90;75.20;;;;;;5035328;28;20056;-81
2021/09/20 07:01:54;;;;;;;12.00;8.52;;;14.00;79.50;;;;;;5034388;28;20018;-81
2021/09/20 07:04:20;;;;;;;10.65;7.50;;;14.10;76.00;;;;;;5033605;28;20109;-81
2021/09/20 07:06:46;;;;;;;12.55;7.57;;;14.20;75.40;;;;;;5034028;28;20029;-82
2021/09/20 07:09:15;;;;;;;6.32;4.13;;;14.30;73.00;;;;;;5033399;28;20569;-82
2021/09/20 07:11:41;;;;;;;9.35;6.22;;;14.40;80.00;;;;;;5034069;28;20128;-82
2021/09/20 07:14:07;;;;;;;9.60;7.03;;;14.60;78.10;;;;;;5034359;28;20031;-81
2021/09/20 07:16:33;;;;;;;9.45;6.13;;;14.70;74.10;;;;;;5034068;28;20112;-82
2021/09/20 07:18:59;;;;;;;10.38;7.18;;;14.90;73.30;;;;;;5036034;28;20096;-82
2021/09/20 07:21:25;;;;;;;6.97;4.65;;;15.00;77.00;;;;;;5050927;28;20365;-81
2021/09/20 07:23:52;;;;;;;8.93;6.35;;;15.10;77.00;;;;;;5040780;28;20108;-82
2021/09/20 07:26:19;;;;;;;11.10;6.10;;;15.30;74.00;;;;;;5046483;28;20060;-82
2021/09/20 07:28:48;;;;;;;9.98;6.93;;;15.30;75.70;;;;;;5055944;28;20104;-80
2021/09/20 07:31:13;;;;;;;5.95;3.58;;;15.40;70.40;;;;;;5056294;28;20093;-82
2021/09/20 07:33:40;;;;;;;5.32;3.13;;;15.40;78.90;;;;;;5040512;28;20363;-82
2021/09/20 07:36:05;;;;;;;5.45;3.50;;;15.60;80.20;;;;;;5033848;28;20071;-81
2021/09/20 07:38:32;;;;;;;5.15;2.90;;;15.70;80.00;;;;;;5033550;28;20033;-82
2021/09/20 07:40:57;;;;;;;4.95;2.90;;;15.70;79.40;;;;;;5033759;28;20021;-81
2021/09/20 07:43:23;;;;;;;11.13;7.75;;;15.70;79.80;;;;;;5033951;28;20048;-82
2021/09/20 07:45:49;;;;;;;11.05;7.50;;;15.80;76.50;;;;;;5033594;28;20381;-81
2021/09/20 07:48:15;;;;;;;9.32;6.45;;;15.80;72.40;;;;;;5032448;28;20061;-85
2021/09/20 07:50:41;;;;;;;11.13;7.60;;;15.80;71.30;;;;;;5036836;28;20017;-83
2021/09/20 07:53:12;;;;;;;10.07;7.63;;;15.90;70.20;;;;;;5034686;28;20021;-81
2021/09/20 07:55:38;;;;;;;10.48;6.07;;;16.00;70.20;;;;;;5035271;28;20044;-81
2021/09/20 07:58:08;;;;;;;10.25;6.75;;;16.10;72.60;;;;;;5032847;28;20061;-80
2021/09/20 08:00:44;;;;;;;9.05;6.22;;;16.20;71.50;;;;;;5042019;28;20021;-83
2021/09/20 08:03:10;;;;;;;8.43;6.22;;;16.20;70.70;;;;;;5052842;28;20027;-80
2021/09/20 08:05:40;;;;;;;12.30;6.45;;;16.20;72.20;;;;;;5050674;28;20075;-82
2021/09/20 08:08:06;;;;;;;10.55;7.20;;;16.30;73.80;;;;;;5066966;28;20388;-82
2021/09/20 08:10:35;;;;;;;11.65;7.68;;;16.30;69.50;;;;;;5057392;28;20092;-85
2021/09/20 08:13:03;;;;;;;10.02;7.07;;;16.40;68.90;;;;;;5068132;28;20036;-84
2021/09/20 08:15:29;;;;;;;7.78;5.22;;;16.50;69.10;;;;;;5061733;28;20013;-85
2021/09/20 08:17:56;;;;;;;12.45;7.40;;;16.50;72.20;;;;;;5073006;28;20017;-84
2021/09/20 08:20:22;;;;;;;10.93;7.63;;;16.70;68.60;;;;;;5057160;28;20120;-84
2021/09/20 08:22:52;;;;;;;10.00;6.15;;;16.90;69.30;;;;;;5069537;28;20034;-85
2021/09/20 08:25:22;;;;;;;8.85;6.65;;;17.10;69.40;;;;;;5061231;28;20096;-84
2021/09/20 08:27:49;;;;;;;10.57;7.57;;;17.40;69.00;;;;;;5069292;28;20029;-84
2021/09/20 08:30:15;;;;;;;9.27;6.55;;;17.40;65.20;;;;;;5067552;28;20029;-83
2021/09/20 08:32:41;;;;;;;10.35;7.32;;;17.60;69.20;;;;;;5066755;28;20012;-84
2021/09/20 08:35:07;;;;;;;12.38;6.80;;;17.70;66.00;;;;;;5074304;28;20017;-83
2021/09/20 08:37:33;;;;;;;8.95;6.22;;;17.70;65.70;;;;;;5060870;28;20020;-83
2021/09/20 08:39:59;;;;;;;7.00;4.57;;;17.90;70.60;;;;;;5076481;28;20408;-84
2021/09/20 08:42:25;;;;;;;8.50;5.88;;;18.00;72.00;;;;;;5062532;28;20032;-84
2021/09/20 08:44:50;;;;;;;11.55;8.13;;;18.20;67.50;;;;;;5075522;28;20024;-83
2021/09/20 08:47:17;;;;;;;9.45;6.63;;;18.40;60.50;;;;;;5069996;28;20021;-84
2021/09/20 08:49:44;;;;;;;10.35;6.75;;;18.50;58.10;;;;;;5066157;28;20078;-83
2021/09/20 08:52:11;;;;;;;8.32;5.63;;;18.40;62.70;;;;;;5061041;28;20021;-84
2021/09/20 08:54:37;;;;;;;9.15;6.65;;;18.40;65.60;;;;;;5072564;28;20504;-83
2021/09/20 08:57:03;;;;;;;8.48;5.95;;;18.30;59.00;;;;;;5060719;28;20024;-81
2021/09/20 08:59:29;;;;;;;8.02;5.18;;;18.50;61.50;;;;;;5051051;28;20029;-83
2021/09/20 09:01:55;;;;;;;8.48;5.80;;;18.70;61.40;;;;;;5068133;28;20042;-85
2021/09/20 09:04:29;;;;;;;8.52;6.40;;;18.90;68.80;;;;;;5085353;28;20024;-83
2021/09/20 09:07:05;;;;;;;7.57;5.20;;;19.00;60.40;;;;;;5043174;28;20554;-84
2021/09/20 09:09:36;;;;;;;10.10;7.30;;;18.90;64.30;;;;;;5067634;28;20025;-83
2021/09/20 09:12:17;;;;;;;9.02;4.72;;;19.00;59.70;;;;;;5069286;28;20403;-84
2021/09/20 09:14:52;;;;;;;10.13;6.25;;;19.10;70.90;;;;;;5073989;28;20063;-83
2021/09/20 09:17:21;;;;;;;10.93;6.57;;;19.20;64.80;;;;;;5091666;28;20044;-83
2021/09/20 09:19:51;;;;;;;8.88;6.68;;;19.30;67.30;;;;;;5091018;28;20028;-82
2021/09/20 09:22:17;;;;;;;8.30;6.05;;;19.40;61.00;;;;;;5095546;28;20029;-85
2021/09/20 09:24:58;;;;;;;11.20;7.07;;;19.50;56.50;;;;;;5087913;28;20100;-83
2021/09/20 09:27:25;;;;;;;11.68;6.47;;;19.50;54.50;;;;;;5073146;28;20509;-84
2021/09/20 09:30:19;;;;;;;9.75;6.05;;;19.50;53.00;;;;;;5065855;28;20045;-82
2021/09/20 09:32:47;;;;;;;9.70;6.03;;;19.60;53.40;;;;;;5071678;28;20116;-83
2021/09/20 09:35:14;;;;;;;8.23;4.15;;;19.50;51.50;;;;;;5060698;28;20020;-84
2021/09/20 09:37:43;;;;;;;7.65;5.22;;;19.60;70.10;;;;;;5064912;28;20040;-83
2021/09/20 09:40:13;;;;;;;8.20;4.60;;;19.80;58.20;;;;;;5079736;28;20032;-84
2021/09/20 09:42:40;;;;;;;7.47;4.63;;;19.70;63.00;;;;;;5059698;28;20430;-84
2021/09/20 09:45:29;;;;;;;6.03;3.95;;;19.70;59.50;;;;;;5070567;28;20024;-84
2021/09/20 09:48:11;;;;;;;9.82;6.50;;;19.90;72.20;;;;;;5067579;28;20791;-85
2021/09/20 09:50:46;;;;;;;8.82;5.85;;;20.00;58.20;;;;;;5064564;28;20041;-82
2021/09/20 09:53:35;;;;;;;6.97;4.85;;;19.90;59.30;;;;;;5060477;28;20489;-83
2021/09/20 09:56:20;;;;;;;8.25;5.10;;;19.90;57.40;;;;;;5064772;28;20025;-83
2021/09/20 09:58:56;;;;;;;7.60;5.07;;;20.10;66.20;;;;;;5073091;28;20024;-83
2021/09/20 10:01:33;;;;;;;7.18;4.00;;;20.40;62.70;;;;;;5056811;28;20376;-84
2021/09/20 10:04:02;;;;;;;8.73;4.32;;;20.50;70.40;;;;;;5069166;28;20020;-83
2021/09/20 10:06:28;;;;;;;7.60;4.78;;;20.60;68.90;;;;;;5079492;28;20028;-84
2021/09/20 10:08:54;;;;;;;6.72;4.45;;;20.60;64.60;;;;;;5060005;28;20031;-84
2021/09/20 10:11:19;;;;;;;10.00;5.45;;;20.80;66.80;;;;;;5075114;28;20040;-83
2021/09/20 10:13:48;;;;;;;6.35;3.95;;;20.90;61.60;;;;;;5065140;28;20040;-83
2021/09/20 10:16:14;;;;;;;6.82;3.90;;;21.10;74.80;;;;;;5078105;28;20074;-83
2021/09/20 10:18:39;;;;;;;5.13;3.60;;;21.30;73.50;;;;;;5075161;28;20032;-84
2021/09/20 10:21:06;;;;;;;7.18;4.45;;;21.50;67.80;;;;;;5061151;28;20047;-84
2021/09/20 10:23:32;;;;;;;5.72;3.05;;;21.50;58.90;;;;;;5066707;28;20017;-82
2021/09/20 10:25:58;;;;;;;5.43;3.65;;;21.40;62.80;;;;;;5067186;28;20108;-83
2021/09/20 10:28:24;;;;;;;6.80;4.18;;;21.60;73.10;;;;;;5058569;28;20040;-83
2021/09/20 10:30:50;;;;;;;6.40;3.90;;;21.90;70.80;;;;;;5070775;28;20478;-84
2021/09/20 10:33:16;;;;;;;9.10;5.20;;;21.90;71.90;;;;;;5061158;28;20017;-83
2021/09/20 10:35:50;;;;;;;10.68;5.82;;;21.80;59.50;;;;;;5064909;28;20017;-84
2021/09/20 10:38:24;;;;;;;8.30;5.32;;;21.80;50.90;;;;;;5070297;28;20020;-82
2021/09/20 10:41:14;;;;;;;7.72;4.15;;;21.60;51.00;;;;;;5057838;28;20052;-83
2021/09/20 10:43:45;;;;;;;5.53;3.78;;;21.70;58.70;;;;;;5077331;28;20032;-83
2021/09/20 10:46:23;;;;;;;6.68;3.42;;;21.70;72.90;;;;;;5061762;28;20060;-83
2021/09/20 10:48:54;;;;;;;11.43;5.18;;;21.90;74.50;;;;;;5074131;28;20067;-84
2021/09/20 10:51:26;;;;;;;6.38;3.83;;;22.00;59.60;;;;;;5074581;28;20036;-83
2021/09/20 10:54:13;;;;;;;7.80;5.60;;;22.20;66.20;;;;;;5084295;28;20044;-82
2021/09/20 10:56:40;;;;;;;8.75;4.80;;;22.40;56.10;;;;;;5075836;28;20123;-79
2021/09/20 10:59:07;;;;;;;6.20;4.35;;;22.40;58.80;;;;;;5074374;28;20036;-82
2021/09/20 11:01:39;;;;;;;6.05;4.20;;;22.10;59.20;;;;;;5074601;28;20028;-83
2021/09/20 11:04:20;;;;;;;9.57;6.05;;;21.90;70.40;;;;;;5078302;28;20009;-83
2021/09/20 11:07:03;;;;;;;6.80;4.32;;;21.80;54.40;;;;;;5057646;28;20018;-81
2021/09/20 11:09:32;;;;;;;6.80;4.68;;;21.70;74.30;;;;;;5057715;28;20056;-81
2021/09/20 11:12:07;;;;;;;7.47;4.43;;;21.70;74.60;;;;;;5056139;28;20017;-84
2021/09/20 11:14:43;;;;;;;6.25;4.63;;;21.60;75.20;;;;;;5050804;28;20099;-82
2021/09/20 11:17:23;;;;;;;7.35;5.32;;;21.40;70.70;;;;;;5050890;28;20076;-81
2021/09/20 11:19:51;;;;;;;9.10;4.75;;;21.10;76.00;;;;;;5036080;28;20424;-80
2021/09/20 11:22:25;;;;;;;8.98;4.90;;;21.00;72.40;;;;;;5034238;28;20018;-83
2021/09/20 11:24:56;;;;;;;8.32;5.82;;;21.10;63.00;;;;;;5034635;28;20044;-83
2021/09/20 11:27:30;;;;;;;7.43;4.72;;;21.30;58.90;;;;;;5039076;28;20032;-81
2021/09/20 11:30:23;;;;;;;8.32;4.28;;;21.30;63.00;;;;;;5042795;28;20124;-82
2021/09/20 11:33:00;;;;;;;6.90;4.15;;;21.50;57.40;;;;;;5035106;28;20048;-83
2021/09/20 11:35:28;;;;;;;7.88;4.47;;;21.90;68.20;;;;;;5033824;28;20555;-83
2021/09/20 11:37:56;;;;;;;6.22;3.85;;;22.00;68.40;;;;;;5049400;28;20022;-82
2021/09/20 11:40:25;;;;;;;6.55;4.22;;;21.90;66.40;;;;;;5035373;28;20017;-83
2021/09/20 11:43:01;;;;;;;6.63;4.03;;;21.70;62.80;;;;;;5034625;28;20021;-82
2021/09/20 11:45:32;;;;;;;5.72;4.18;;;21.40;67.60;;;;;;5034891;28;20477;-81
2021/09/20 11:48:01;;;;;;;7.13;4.85;;;21.20;74.80;;;;;;5033866;28;20053;-81
2021/09/20 11:50:30;;;;;;;7.83;4.37;;;21.10;74.70;;;;;;5034032;28;20022;-81
2021/09/20 11:53:01;;;;;;;8.68;5.07;;;21.00;70.30;;;;;;5033745;28;20667;-82
2021/09/20 11:55:33;;;;;;;9.32;5.60;;;20.90;66.70;;;;;;5050091;28;20026;-80
2021/09/20 11:58:01;;;;;;;6.88;4.13;;;20.60;59.60;;;;;;5033749;28;20389;-81
2021/09/20 12:00:30;;;;;;;7.68;5.00;;;20.30;72.20;;;;;;5035207;28;20033;-82
2021/09/20 12:02:59;;;;;;;9.30;5.40;;;20.20;69.20;;;;;;5033937;28;20022;-82
2021/09/20 12:05:46;;;;;;;5.68;3.95;;;20.10;66.40;;;;;;5042661;28;20029;-82
2021/09/20 12:08:17;;;;;;;6.30;4.88;;;20.00;72.00;;;;;;5040684;28;20025;-80
2021/09/20 12:10:55;;;;;;;9.15;5.43;;;19.90;73.50;;;;;;5055844;28;20048;-81
2021/09/20 12:13:23;;;;;;;6.78;5.15;;;19.90;73.90;;;;;;5054032;28;20455;-79
2021/09/20 12:15:52;;;;;;;7.00;4.40;;;19.90;74.20;;;;;;5056948;28;20021;-79
2021/09/20 12:18:27;;;;;;;7.85;5.30;;;19.90;70.40;;;;;;5056935;28;20032;-80
2021/09/20 12:20:59;;;;;;;6.32;4.38;;;19.80;74.20;;;;;;5057066;28;20120;-81
2021/09/20 12:23:29;;;;;;;8.43;5.60;;;19.80;73.00;;;;;;5057188;28;20024;-82
2021/09/20 12:26:21;;;;;;;10.80;5.45;;;19.80;70.00;;;;;;5057228;28;20021;-81
2021/09/20 12:29:00;;;;;;;7.10;4.47;;;19.60;68.00;;;;;;5054365;28;20045;-81
2021/09/20 12:31:46;;;;;;;7.85;4.60;;;19.60;74.90;;;;;;5056629;28;20092;-83
2021/09/20 12:34:16;;;;;;;6.35;4.65;;;19.70;73.40;;;;;;5056284;28;20056;-79
2021/09/20 12:36:48;;;;;;;12.00;5.07;;;19.80;75.70;;;;;;5056907;28;20031;-81
2021/09/20 12:39:19;;;;;;;7.20;5.00;;;19.80;73.00;;;;;;5055911;28;20366;-80
2021/09/20 12:41:54;;;;;;;6.70;4.43;;;19.80;71.30;;;;;;5055882;28;20053;-80
2021/09/20 12:44:40;;;;;;;6.40;4.57;;;19.60;71.80;;;;;;5056314;28;20083;-80
2021/09/20 12:47:07;;;;;;;8.73;5.38;;;19.60;73.60;;;;;;5057390;28;20029;-80